createdAt,value
2019-05-11T00:00:33.389Z,6.43
2019-05-11T00:03:02.594Z,6.30
2019-05-11T00:05:32.045Z,6.53
2019-05-11T00:08:01.293Z,5.03
2019-05-11T00:10:30.949Z,4.57
2019-05-11T00:13:00.275Z,5.97
2019-05-11T00:15:29.463Z,5.37
2019-05-11T00:17:58.694Z,5.43
2019-05-11T00:20:27.897Z,5.80
2019-05-11T00:22:57.165Z,4.97
2019-05-11T00:25:26.396Z,5.13
2019-05-11T00:27:55.657Z,5.80
2019-05-11T00:30:24.949Z,5.50
2019-05-11T00:32:54.254Z,5.00
2019-05-11T00:35:23.500Z,6.00
2019-05-11T00:37:52.794Z,5.07
2019-05-11T00:40:21.967Z,4.70
2019-05-11T00:42:51.136Z,3.33
2019-05-11T00:45:20.334Z,5.00
2019-05-11T00:47:49.729Z,5.33
2019-05-11T00:50:18.959Z,5.57
2019-05-11T00:52:48.291Z,4.67
2019-05-11T00:55:17.583Z,5.40
2019-05-11T00:57:46.727Z,4.60
2019-05-11T01:00:16.240Z,5.73
2019-05-11T01:02:45.644Z,4.13
2019-05-11T01:05:14.846Z,4.30
2019-05-11T01:07:44.086Z,4.47
2019-05-11T01:10:23.621Z,5.30
2019-05-11T01:12:44.593Z,5.83
2019-05-11T01:15:13.996Z,5.10
2019-05-11T01:17:43.177Z,3.87
2019-05-11T01:20:12.634Z,4.73
2019-05-11T01:22:42.175Z,3.47
2019-05-11T01:25:11.494Z,3.60
2019-05-11T01:27:40.806Z,3.77
2019-05-11T01:30:10.839Z,6.70
2019-05-11T01:32:40.218Z,6.13
2019-05-11T01:35:09.634Z,6.80
2019-05-11T01:37:38.827Z,4.70
2019-05-11T01:40:09.643Z,5.80
2019-05-11T01:42:39.065Z,6.97
2019-05-11T01:45:08.748Z,6.97
2019-05-11T01:47:37.955Z,6.37
2019-05-11T01:50:07.643Z,6.80
2019-05-11T01:52:36.918Z,6.77
2019-05-11T01:55:06.313Z,5.87
2019-05-11T01:57:35.556Z,6.30
2019-05-11T02:00:05.685Z,6.30
2019-05-11T02:02:34.985Z,5.27
2019-05-11T02:05:22.447Z,4.97
2019-05-11T02:07:51.677Z,4.33
2019-05-11T02:10:20.924Z,4.97
2019-05-11T02:12:50.261Z,3.60
2019-05-11T02:15:19.462Z,3.97
2019-05-11T02:17:48.713Z,3.73
2019-05-11T02:20:18.118Z,3.80
2019-05-11T02:22:47.367Z,4.20
2019-05-11T02:25:16.846Z,3.20
2019-05-11T02:27:46.068Z,3.00
2019-05-11T02:30:16.560Z,3.83
2019-05-11T02:32:47.947Z,2.90
2019-05-11T02:35:17.298Z,2.83
2019-05-11T02:37:46.532Z,3.50
2019-05-11T02:40:16.381Z,2.97
2019-05-11T02:42:45.723Z,2.57
2019-05-11T02:45:15.142Z,2.50
2019-05-11T02:47:44.312Z,2.47
2019-05-11T02:50:14.087Z,2.47
2019-05-11T02:52:43.579Z,2.00
2019-05-11T02:55:12.989Z,2.40
2019-05-11T02:57:42.124Z,2.40
2019-05-11T03:00:11.958Z,2.33
2019-05-11T03:02:41.215Z,2.27
2019-05-11T03:05:10.721Z,2.00
2019-05-11T03:07:39.883Z,2.20
2019-05-11T03:10:09.121Z,1.70
2019-05-11T03:12:38.286Z,2.10
2019-05-11T03:15:07.827Z,1.70
2019-05-11T03:17:36.980Z,1.60
2019-05-11T03:20:06.866Z,1.77
2019-05-11T03:22:36.258Z,1.50
2019-05-11T03:25:05.852Z,1.67
2019-05-11T03:27:35.002Z,1.57
2019-05-11T03:30:04.688Z,1.70
2019-05-11T03:32:34.016Z,1.60
2019-05-11T03:35:03.258Z,1.57
2019-05-11T03:37:32.483Z,1.50
2019-05-11T03:40:01.607Z,1.60
2019-05-11T03:42:31.000Z,1.63
2019-05-11T03:45:00.217Z,1.27
2019-05-11T03:47:29.535Z,1.50
2019-05-11T03:49:58.716Z,1.70
2019-05-11T03:52:27.900Z,1.43
2019-05-11T03:54:57.118Z,1.30
2019-05-11T04:39:29.395Z,1.20
2019-05-11T04:41:58.641Z,1.70
2019-05-11T04:44:27.816Z,1.35
2019-05-11T04:46:57.020Z,1.60
2019-05-11T04:49:26.293Z,1.50
2019-05-11T04:51:55.599Z,1.45
2019-05-11T04:54:24.790Z,1.52
2019-05-11T04:56:53.994Z,1.50
2019-05-11T04:59:23.190Z,1.40
2019-05-11T05:01:52.533Z,1.40
2019-05-11T05:04:21.702Z,1.10
2019-05-11T05:06:59.538Z,1.32
2019-05-11T05:09:22.039Z,1.62
2019-05-11T05:11:51.746Z,1.47
2019-05-11T05:14:21.348Z,1.33
2019-05-11T05:16:50.616Z,1.40
2019-05-11T05:19:19.784Z,1.20
2019-05-11T05:21:49.034Z,1.30
2019-05-11T05:24:18.269Z,1.35
2019-05-11T05:26:47.456Z,1.40
2019-05-11T05:29:16.679Z,1.57
2019-05-11T05:31:46.400Z,2.00
2019-05-11T05:34:15.601Z,1.25
2019-05-11T05:36:44.744Z,1.55
2019-05-11T05:39:13.989Z,1.70
2019-05-11T05:41:43.160Z,1.50
2019-05-11T05:44:12.359Z,1.25
2019-05-11T05:46:41.542Z,1.00
2019-05-11T05:49:10.779Z,1.40
2019-05-11T05:51:39.946Z,1.23
2019-05-11T05:54:09.141Z,1.50
2019-05-11T05:56:38.542Z,1.40
2019-05-11T05:59:07.743Z,1.67
2019-05-11T06:01:37.762Z,1.70
2019-05-11T06:04:06.942Z,1.40
2019-05-11T06:06:36.193Z,1.50
2019-05-11T06:09:07.241Z,1.52
2019-05-11T06:11:36.651Z,1.80
2019-05-11T06:14:05.852Z,1.40
2019-05-11T06:16:35.048Z,1.67
2019-05-11T06:19:04.236Z,1.70
2019-05-11T06:21:33.466Z,1.80
2019-05-11T06:24:06.991Z,1.80
2019-05-11T06:26:33.706Z,2.10
2019-05-11T06:29:02.869Z,1.50
2019-05-11T06:31:33.594Z,1.40
2019-05-11T06:34:02.819Z,1.37
2019-05-11T06:36:32.014Z,1.40
2019-05-11T06:39:01.173Z,1.77
2019-05-11T06:41:30.780Z,1.13
2019-05-11T06:44:02.108Z,1.57
2019-05-11T06:46:30.983Z,1.40
2019-05-11T06:49:00.218Z,1.57
2019-05-11T06:51:29.447Z,1.50
2019-05-11T06:53:58.685Z,1.60
2019-05-11T06:56:28.074Z,1.60
2019-05-11T06:58:57.584Z,1.30
2019-05-11T07:01:26.837Z,1.60
2019-05-11T07:03:56.142Z,1.47
2019-05-11T07:06:28.348Z,1.60
2019-05-11T07:08:56.449Z,1.50
2019-05-11T07:11:25.777Z,1.43
2019-05-11T07:13:55.056Z,1.47
2019-05-11T07:16:24.367Z,1.50
2019-05-11T07:18:53.537Z,2.00
2019-05-11T07:21:22.820Z,1.80
2019-05-11T07:23:52.027Z,1.77
2019-05-11T07:26:21.371Z,2.13
2019-05-11T07:28:50.693Z,1.77
2019-05-11T07:31:20.223Z,1.67
2019-05-11T07:33:49.609Z,2.20
2019-05-11T07:36:18.934Z,1.83
2019-05-11T07:38:48.803Z,1.70
2019-05-11T07:41:18.094Z,1.33
2019-05-11T07:43:48.461Z,1.70
2019-05-11T07:46:18.349Z,1.70
2019-05-11T07:48:48.106Z,1.60
2019-05-11T07:51:18.265Z,1.40
2019-05-11T07:53:48.705Z,1.30
2019-05-11T07:56:18.856Z,1.80
2019-05-11T07:58:48.415Z,1.50
2019-05-11T08:01:18.871Z,1.60
2019-05-11T08:03:48.535Z,1.60
2019-05-11T08:06:18.538Z,1.40
2019-05-11T08:08:49.024Z,1.33
2019-05-11T08:11:18.633Z,1.40
2019-05-11T08:13:48.267Z,1.13
2019-05-11T08:16:18.524Z,1.60
2019-05-11T08:18:48.408Z,1.07
2019-05-11T08:21:18.035Z,1.20
2019-05-11T08:23:48.296Z,1.30
2019-05-11T08:26:19.080Z,1.47
2019-05-11T08:28:51.075Z,1.32
2019-05-11T08:31:20.272Z,1.30
2019-05-11T08:33:49.549Z,1.40
2019-05-11T08:36:18.823Z,1.40
2019-05-11T08:40:07.843Z,1.20
2019-05-11T08:42:37.848Z,1.17
2019-05-11T08:45:19.577Z,1.10
2019-05-11T08:47:38.511Z,1.25
2019-05-11T08:50:08.389Z,1.50
2019-05-11T08:52:38.679Z,1.17
2019-05-11T08:55:08.821Z,1.17
2019-05-11T08:57:38.736Z,1.22
2019-05-11T09:00:09.776Z,1.22
2019-05-11T09:02:38.966Z,1.20
2019-05-11T09:05:08.455Z,1.40
2019-05-11T09:07:38.531Z,1.43
2019-05-11T09:10:09.277Z,1.70
2019-05-11T09:12:38.492Z,1.50
2019-05-11T09:15:08.881Z,1.30
2019-05-11T09:17:38.376Z,1.20
2019-05-11T09:20:08.873Z,1.17
2019-05-11T09:22:38.348Z,0.93
2019-05-11T09:25:08.831Z,0.93
2019-05-11T09:27:38.480Z,0.88
2019-05-11T09:30:08.513Z,1.00
2019-05-11T09:32:38.556Z,0.90
2019-05-11T09:35:08.471Z,0.90
2019-05-11T09:37:38.275Z,0.70
2019-05-11T09:40:08.102Z,0.80
2019-05-11T09:42:38.821Z,0.75
2019-05-11T09:45:08.353Z,0.60
2019-05-11T09:47:38.654Z,0.70
2019-05-11T09:50:08.856Z,0.70
2019-05-11T09:52:38.560Z,0.60
2019-05-11T09:55:08.864Z,0.70
2019-05-11T09:57:38.403Z,0.60
2019-05-11T10:00:08.910Z,0.62
2019-05-11T10:02:38.899Z,0.60
2019-05-11T10:05:09.033Z,0.67
2019-05-11T10:07:38.394Z,0.50
2019-05-11T10:10:09.167Z,0.40
2019-05-11T10:12:38.868Z,0.43
2019-05-11T10:15:08.843Z,0.40
2019-05-11T10:17:38.488Z,0.40
2019-05-11T10:20:09.607Z,0.60
2019-05-11T10:22:38.904Z,0.47
2019-05-11T10:25:09.075Z,0.80
2019-05-11T10:27:38.620Z,0.80
2019-05-11T10:30:08.966Z,1.87
2019-05-11T10:32:38.329Z,15.18
2019-05-11T10:35:08.317Z,2.67
2019-05-11T10:37:38.974Z,1.32
2019-05-11T10:40:09.523Z,7.00
2019-05-11T10:42:38.895Z,0.50
2019-05-11T10:45:09.239Z,0.60
2019-05-11T10:47:38.559Z,1.87
2019-05-11T10:50:08.686Z,0.70
2019-05-11T10:52:38.154Z,0.70
2019-05-11T10:55:08.878Z,0.50
2019-05-11T10:57:38.851Z,0.65
2019-05-11T11:00:09.198Z,0.60
2019-05-11T11:02:38.628Z,0.60
2019-05-11T11:05:08.700Z,0.40
2019-05-11T11:07:38.517Z,0.60
2019-05-11T11:10:08.965Z,0.53
2019-05-11T11:12:38.685Z,0.60
2019-05-11T11:15:08.459Z,0.50
2019-05-11T11:17:38.370Z,0.83
2019-05-11T11:20:08.973Z,0.50
2019-05-11T11:22:43.427Z,0.70
2019-05-11T11:25:09.185Z,0.90
2019-05-11T11:27:38.422Z,0.60
2019-05-11T11:30:09.313Z,0.50
2019-05-11T11:32:38.741Z,0.63
2019-05-11T11:35:08.693Z,0.43
2019-05-11T11:37:38.722Z,0.50
2019-05-11T11:40:08.806Z,0.67
2019-05-11T11:42:38.308Z,0.43
2019-05-11T11:45:08.168Z,0.53
2019-05-11T11:47:38.367Z,0.50
2019-05-11T11:50:09.265Z,0.50
2019-05-11T11:52:38.585Z,0.70
2019-05-11T11:55:08.424Z,0.47
2019-05-11T11:57:38.161Z,0.57
2019-05-11T12:00:09.343Z,0.57
2019-05-11T12:02:38.945Z,0.70
2019-05-11T12:05:08.936Z,0.63
2019-05-11T12:07:38.761Z,0.80
2019-05-11T12:10:08.553Z,0.73
2019-05-11T12:12:38.622Z,0.80
2019-05-11T12:15:08.884Z,0.90
2019-05-11T12:17:38.419Z,0.90
2019-05-11T12:20:09.035Z,0.53
2019-05-11T12:22:38.909Z,0.60
2019-05-11T12:25:09.221Z,0.60
2019-05-11T12:27:38.637Z,0.70
2019-05-11T12:30:09.090Z,0.50
2019-05-11T12:32:43.347Z,0.63
2019-05-11T12:35:12.781Z,0.40
2019-05-11T12:37:42.041Z,0.40
2019-05-11T12:40:12.065Z,0.60
2019-05-11T12:42:41.345Z,0.60
2019-05-11T12:45:10.989Z,0.63
2019-05-11T12:47:40.207Z,0.70
2019-05-11T12:50:09.995Z,0.63
2019-05-11T12:52:39.240Z,0.57
2019-05-11T12:55:08.904Z,0.40
2019-05-11T12:57:38.738Z,1.10
2019-05-11T13:00:08.867Z,0.80
2019-05-11T13:02:38.766Z,0.47
2019-05-11T13:05:09.354Z,0.70
2019-05-11T13:07:39.217Z,0.43
2019-05-11T13:10:09.690Z,0.70
2019-05-11T13:12:38.918Z,0.40
2019-05-11T13:15:08.513Z,0.50
2019-05-11T13:17:40.850Z,0.60
2019-05-11T13:20:12.663Z,0.70
2019-05-11T13:22:40.655Z,0.60
2019-05-11T13:30:09.241Z,0.50
2019-05-11T13:32:38.755Z,0.97
2019-05-11T13:45:08.645Z,0.50
2019-05-11T13:47:51.828Z,1.02
2019-05-11T13:50:09.386Z,0.87
2019-05-11T13:52:38.935Z,0.47
2019-05-11T13:55:09.598Z,0.47
2019-05-11T13:57:39.917Z,0.60
2019-05-11T14:00:09.968Z,0.40
2019-05-11T14:02:39.321Z,0.67
2019-05-11T14:05:09.873Z,0.63
2019-05-11T14:07:39.254Z,0.77
2019-05-11T14:10:08.963Z,0.67
2019-05-11T14:12:38.813Z,0.90
2019-05-11T14:15:08.773Z,0.80
2019-05-11T14:17:38.217Z,0.60
2019-05-11T14:20:08.959Z,0.50
2019-05-11T14:22:38.900Z,0.60
2019-05-11T14:25:08.516Z,2.90
2019-05-11T14:27:39.276Z,12.87
2019-05-11T14:30:09.310Z,4.73
2019-05-11T14:32:39.077Z,16.50
2019-05-11T14:40:08.718Z,1.50
2019-05-11T14:42:38.496Z,1.80
2019-05-11T14:45:08.542Z,11.33
2019-05-11T14:47:38.823Z,19.48
2019-05-11T14:50:09.594Z,12.67
2019-05-11T14:52:39.209Z,9.67
2019-05-11T14:55:08.925Z,3.00
2019-05-11T14:57:39.718Z,2.30
2019-05-11T15:00:10.272Z,1.83
2019-05-11T15:02:49.783Z,1.03
2019-05-11T15:05:21.050Z,3.27
2019-05-11T15:07:52.616Z,7.40
2019-05-11T15:10:22.118Z,3.23
2019-05-11T15:12:51.298Z,2.30
2019-05-11T15:15:20.785Z,9.50
2019-05-11T15:17:50.057Z,12.20
2019-05-11T15:20:19.713Z,13.00
2019-05-11T15:22:49.278Z,5.23
2019-05-11T15:25:19.886Z,2.60
2019-05-11T15:27:49.570Z,1.70
2019-05-11T15:30:19.205Z,1.40
2019-05-11T15:32:48.646Z,1.10
2019-05-11T15:35:18.774Z,1.27
2019-05-11T15:37:48.482Z,12.07
2019-05-11T15:40:19.481Z,5.00
2019-05-11T15:42:49.003Z,26.17
2019-05-11T15:45:19.488Z,8.87
2019-05-11T15:47:49.070Z,7.63
2019-05-11T15:50:19.410Z,4.70
2019-05-11T15:52:49.149Z,31.23
2019-05-11T15:55:19.564Z,14.63
2019-05-11T15:57:48.883Z,15.33
2019-05-11T16:00:18.415Z,5.97
2019-05-11T16:02:49.030Z,3.90
2019-05-11T16:05:18.827Z,6.50
2019-05-11T16:07:49.231Z,2.93
2019-05-11T16:10:19.856Z,2.83
2019-05-11T16:12:49.298Z,1.57
2019-05-11T16:15:19.545Z,1.83
2019-05-11T16:22:48.312Z,0.90
2019-05-11T16:25:19.796Z,0.80
2019-05-11T16:27:48.627Z,0.93
2019-05-11T16:30:21.379Z,0.90
2019-05-11T16:32:49.236Z,0.60
2019-05-11T16:37:48.648Z,0.57
2019-05-11T16:40:20.889Z,0.65
2019-05-11T16:42:49.502Z,0.60
2019-05-11T16:45:19.496Z,0.60
2019-05-11T16:47:49.056Z,0.60
2019-05-11T16:50:18.612Z,0.50
2019-05-11T16:52:48.417Z,0.60
2019-05-11T16:55:18.544Z,0.93
2019-05-11T16:57:48.728Z,0.90
2019-05-11T17:00:18.742Z,0.83
2019-05-11T17:02:49.273Z,1.40
2019-05-11T17:05:26.395Z,0.90
2019-05-11T17:07:49.502Z,1.90
2019-05-11T17:10:18.981Z,2.50
2019-05-11T17:12:48.950Z,2.20
2019-05-11T17:15:18.873Z,2.97
2019-05-11T17:17:48.934Z,3.30
2019-05-11T17:20:19.010Z,3.93
2019-05-11T17:22:48.593Z,3.90
2019-05-11T17:25:19.221Z,5.70
2019-05-11T17:27:49.384Z,3.90
2019-05-11T17:30:19.829Z,4.30
2019-05-11T17:32:49.782Z,4.00
2019-05-11T17:35:19.262Z,4.30
2019-05-11T17:37:48.939Z,4.07
2019-05-11T17:40:22.752Z,4.00
2019-05-11T17:42:53.024Z,4.00
2019-05-11T17:57:42.140Z,2.03
2019-05-11T18:00:12.165Z,3.02
2019-05-11T18:02:41.630Z,2.58
2019-05-11T18:05:11.225Z,2.40
2019-05-11T18:07:40.767Z,2.50
2019-05-11T18:10:10.134Z,2.25
2019-05-11T18:12:39.389Z,2.00
2019-05-11T18:15:09.033Z,2.22
2019-05-11T18:17:38.436Z,2.00
2019-05-11T18:20:17.332Z,2.00
2019-05-11T18:22:39.487Z,2.00
2019-05-11T18:25:09.532Z,2.00
2019-05-11T18:27:38.946Z,2.00
2019-05-11T18:30:09.680Z,1.42
2019-05-11T18:32:39.800Z,1.95
2019-05-11T18:35:09.218Z,2.00
2019-05-11T18:37:39.044Z,2.10
2019-05-11T18:40:09.124Z,2.02
2019-05-11T18:42:38.507Z,2.12
2019-05-11T18:45:08.557Z,2.10
2019-05-11T18:47:38.371Z,2.05
2019-05-11T18:50:08.141Z,2.22
2019-05-11T18:52:37.769Z,2.30
2019-05-11T18:55:08.566Z,2.37
2019-05-11T18:57:38.380Z,2.70
2019-05-11T19:00:09.601Z,2.25
2019-05-11T19:02:39.247Z,2.50
2019-05-11T19:05:08.512Z,3.00
2019-05-11T19:07:38.709Z,3.02
2019-05-11T19:10:08.887Z,2.80
2019-05-11T19:12:38.162Z,3.17
2019-05-11T19:15:08.543Z,3.50
2019-05-11T19:17:38.466Z,3.30
2019-05-11T19:20:08.820Z,3.80
2019-05-11T19:22:38.077Z,4.35
2019-05-11T19:25:09.104Z,4.30
2019-05-11T19:27:38.915Z,4.57
2019-05-11T19:30:09.158Z,4.28
2019-05-11T19:32:38.608Z,3.90
2019-05-11T19:35:09.109Z,4.45
2019-05-11T19:37:39.402Z,4.62
2019-05-11T19:40:09.473Z,4.12
2019-05-11T19:42:53.794Z,4.40
2019-05-11T19:45:23.544Z,4.05
2019-05-11T19:47:52.791Z,4.33
2019-05-11T19:50:22.166Z,4.25
2019-05-11T19:52:51.568Z,4.30
2019-05-11T19:55:21.010Z,4.37
2019-05-11T19:57:50.221Z,4.70
2019-05-11T20:00:19.800Z,4.53
2019-05-11T20:02:49.049Z,4.35
2019-05-11T20:05:18.650Z,4.37
2019-05-11T20:07:48.830Z,4.33
2019-05-11T20:10:19.067Z,4.10
2019-05-11T20:12:48.862Z,3.77
2019-05-11T20:15:19.130Z,3.35
2019-05-11T20:17:49.124Z,3.95
2019-05-11T20:20:18.850Z,3.90
2019-05-11T20:22:48.877Z,3.83
2019-05-11T20:25:19.148Z,3.95
2019-05-11T20:27:49.048Z,4.80
2019-05-11T20:30:19.083Z,5.00
2019-05-11T20:32:49.392Z,5.83
2019-05-11T20:35:19.253Z,6.10
2019-05-11T20:37:48.479Z,4.10
2019-05-11T20:40:18.427Z,4.30
2019-05-11T20:42:48.676Z,4.45
2019-05-11T20:45:18.746Z,4.27
2019-05-11T20:47:48.857Z,4.25
2019-05-11T20:50:19.050Z,3.70
2019-05-11T20:52:48.790Z,4.00
2019-05-11T20:55:18.494Z,3.80
2019-05-11T20:57:48.622Z,4.00
2019-05-11T21:00:18.916Z,3.98
2019-05-11T21:02:48.783Z,3.85
2019-05-11T21:05:18.759Z,4.53
2019-05-11T21:07:47.954Z,4.40
2019-05-11T21:10:18.143Z,5.08
2019-05-11T21:12:47.481Z,3.90
2019-05-11T21:15:17.491Z,5.92
2019-05-11T21:17:50.255Z,4.65
2019-05-11T21:20:18.374Z,3.42
2019-05-11T21:22:48.678Z,3.43
2019-05-11T21:25:18.576Z,3.20
2019-05-11T21:27:48.688Z,3.15
2019-05-11T21:30:18.497Z,2.62
2019-05-11T21:32:48.060Z,3.00
2019-05-11T21:35:19.302Z,2.85
2019-05-11T21:37:48.826Z,3.00
2019-05-11T21:40:18.300Z,3.17
2019-05-11T21:42:47.943Z,2.80
2019-05-11T21:45:18.255Z,3.20
2019-05-11T21:47:49.038Z,3.20
2019-05-11T21:50:19.184Z,3.30
2019-05-11T21:52:48.624Z,3.17
2019-05-11T21:55:17.842Z,3.10
2019-05-11T21:57:49.491Z,2.90
2019-05-11T22:00:19.312Z,2.80
2019-05-11T22:02:48.760Z,2.70
2019-05-11T22:05:20.750Z,3.10
2019-05-11T22:07:49.146Z,2.47
2019-05-11T22:10:18.378Z,2.52
2019-05-11T22:12:49.053Z,2.80
2019-05-11T22:15:18.733Z,2.80
2019-05-11T22:17:48.168Z,2.77
2019-05-11T22:20:18.338Z,2.60
2019-05-11T22:22:47.963Z,2.90
2019-05-11T22:25:18.243Z,3.22
2019-05-11T22:27:48.811Z,2.83
2019-05-11T22:30:18.813Z,3.37
2019-05-11T22:32:48.271Z,3.45
2019-05-11T22:35:18.273Z,3.75
2019-05-11T22:37:49.058Z,3.90
2019-05-11T22:40:18.900Z,3.70
2019-05-11T22:42:48.127Z,3.98
2019-05-11T22:45:18.740Z,4.43
2019-05-11T22:47:48.269Z,4.63
2019-05-11T22:50:18.697Z,4.72
2019-05-11T22:52:48.518Z,5.70
2019-05-11T22:55:19.172Z,5.08
2019-05-11T22:57:48.678Z,4.50
2019-05-11T23:00:21.514Z,4.53
2019-05-11T23:02:50.935Z,5.25
2019-05-11T23:05:20.261Z,4.67
2019-05-11T23:07:49.551Z,4.27
2019-05-11T23:10:18.892Z,5.22
2019-05-11T23:12:48.388Z,4.80
2019-05-11T23:15:19.338Z,5.40
2019-05-11T23:17:48.611Z,6.15
2019-05-11T23:20:17.893Z,5.05
2019-05-11T23:22:58.059Z,5.47
2019-05-11T23:25:21.294Z,6.55
2019-05-11T23:27:50.971Z,5.65
2019-05-11T23:30:20.533Z,5.33
2019-05-11T23:32:49.885Z,4.75
2019-05-11T23:35:19.319Z,5.00
2019-05-11T23:37:50.144Z,4.87
2019-05-11T23:40:21.409Z,4.15
2019-05-11T23:42:50.618Z,4.50
2019-05-11T23:45:19.987Z,4.90
2019-05-11T23:47:49.362Z,4.87
2019-05-11T23:50:19.452Z,4.92
2019-05-11T23:53:05.102Z,5.20
2019-05-11T23:55:20.512Z,4.45
2019-05-11T23:57:49.812Z,4.72
